Time;durP1;ratioP1;P1;durP2;ratioP2;P2;SDS_P1;SDS_P2;PMS_P1;PMS_P2;Temp;Humidity;BMP_temperature;BMP_pressure;BME280_temperature;BME280_humidity;BME280_pressure;Samples;Min_cycle;Max_cycle;Signal;HPM_P1;HPM_P2
2022/03/07 00:01:05;;;;;;;4.68;2.35;;;2.20;99.90;;;;;;5094318;28;20390;-61
2022/03/07 00:03:31;;;;;;;6.30;2.22;;;2.30;99.90;;;;;;5094005;28;20165;-62
2022/03/07 00:05:56;;;;;;;8.68;2.70;;;2.20;99.90;;;;;;5094087;28;20100;-62
2022/03/07 00:08:22;;;;;;;14.13;3.58;;;2.20;99.90;;;;;;5109813;28;20122;-62
2022/03/07 00:10:48;;;;;;;9.63;2.90;;;2.10;99.90;;;;;;5109780;28;20036;-62
2022/03/07 00:13:14;;;;;;;6.28;2.90;;;2.00;99.90;;;;;;5094658;28;20859;-61
2022/03/07 00:15:40;;;;;;;7.70;3.00;;;2.00;99.90;;;;;;5094478;28;20040;-61
2022/03/07 00:18:06;;;;;;;10.95;3.53;;;1.90;99.90;;;;;;5093865;28;20488;-61
2022/03/07 00:20:33;;;;;;;10.35;2.67;;;1.80;99.90;;;;;;5093906;28;20128;-61
2022/03/07 00:22:58;;;;;;;5.57;2.78;;;1.90;99.90;;;;;;5092349;28;20048;-62
2022/03/07 00:25:24;;;;;;;8.77;3.42;;;1.80;99.90;;;;;;5093765;28;20062;-62
2022/03/07 00:27:50;;;;;;;8.43;4.55;;;1.70;99.90;;;;;;5092616;28;20044;-61
2022/03/07 00:30:18;;;;;;;13.25;5.85;;;1.60;99.90;;;;;;5093645;28;20062;-61
2022/03/07 00:32:44;;;;;;;15.63;5.72;;;1.60;99.90;;;;;;5092669;28;20093;-61
2022/03/07 00:35:10;;;;;;;12.77;5.35;;;1.50;99.90;;;;;;5093629;28;20448;-61
2022/03/07 00:37:37;;;;;;;9.50;4.13;;;1.50;99.90;;;;;;5093912;28;20149;-61
2022/03/07 00:40:06;;;;;;;10.38;4.85;;;1.50;99.90;;;;;;5093878;28;20097;-61
2022/03/07 00:42:32;;;;;;;11.10;5.57;;;1.40;99.90;;;;;;5093483;28;20075;-61
2022/03/07 00:44:58;;;;;;;8.27;4.35;;;1.30;99.90;;;;;;5093745;28;20040;-61
2022/03/07 00:47:25;;;;;;;9.52;4.20;;;1.30;99.90;;;;;;5093220;28;20063;-61
2022/03/07 00:49:51;;;;;;;10.65;4.45;;;1.30;99.90;;;;;;5093448;28;20105;-61
2022/03/07 00:52:17;;;;;;;11.27;4.80;;;1.20;99.90;;;;;;5093766;28;20032;-61
2022/03/07 00:54:43;;;;;;;7.78;3.70;;;1.10;99.90;;;;;;5092443;28;20120;-61
2022/03/07 00:57:08;;;;;;;9.35;5.15;;;1.20;99.90;;;;;;5093258;28;20483;-62
2022/03/07 00:59:34;;;;;;;12.60;5.53;;;1.20;99.90;;;;;;5092879;28;20032;-61
2022/03/07 01:01:59;;;;;;;13.52;6.07;;;1.00;99.90;;;;;;5093191;28;20093;-61
2022/03/07 01:04:25;;;;;;;11.63;5.20;;;1.00;99.90;;;;;;5108827;28;20478;-61
2022/03/07 01:06:51;;;;;;;10.75;5.43;;;1.00;99.90;;;;;;5091514;28;20367;-61
2022/03/07 01:09:17;;;;;;;9.35;4.50;;;1.00;99.90;;;;;;5093186;28;20040;-62
2022/03/07 01:11:43;;;;;;;12.68;5.68;;;0.90;99.90;;;;;;5092908;28;20109;-61
2022/03/07 01:14:08;;;;;;;9.80;4.38;;;0.90;99.90;;;;;;5091724;28;20513;-61
2022/03/07 01:16:34;;;;;;;12.63;5.50;;;0.90;99.90;;;;;;5092858;28;20044;-61
2022/03/07 01:18:59;;;;;;;8.43;4.95;;;0.90;99.90;;;;;;5092666;28;20133;-61
2022/03/07 01:21:25;;;;;;;10.25;5.47;;;0.90;99.90;;;;;;5092714;28;20492;-61
2022/03/07 01:23:51;;;;;;;7.65;3.92;;;1.00;99.90;;;;;;5092363;28;20052;-61
2022/03/07 01:26:17;;;;;;;9.52;3.88;;;0.90;99.90;;;;;;5091330;28;20124;-61
2022/03/07 01:28:42;;;;;;;4.88;2.80;;;0.90;99.90;;;;;;5092624;28;20032;-60
2022/03/07 01:31:08;;;;;;;6.93;3.25;;;1.00;99.90;;;;;;5093008;28;20085;-61
2022/03/07 01:33:34;;;;;;;12.38;3.78;;;0.90;99.90;;;;;;5092564;28;20044;-61
2022/03/07 01:36:00;;;;;;;10.80;3.72;;;0.90;99.90;;;;;;5092359;28;20047;-61
2022/03/07 01:38:26;;;;;;;8.45;3.58;;;0.90;99.90;;;;;;5092704;28;20036;-61
2022/03/07 01:40:51;;;;;;;9.20;3.47;;;1.00;99.90;;;;;;5091687;28;20504;-61
2022/03/07 01:43:17;;;;;;;10.27;3.47;;;0.90;99.90;;;;;;5092669;28;20100;-61
2022/03/07 01:45:43;;;;;;;8.48;3.10;;;0.80;99.90;;;;;;5092632;28;20039;-61
2022/03/07 01:48:10;;;;;;;6.85;3.20;;;0.80;99.90;;;;;;5092440;28;20047;-61
2022/03/07 01:50:36;;;;;;;5.47;3.35;;;0.80;99.90;;;;;;5092256;28;20067;-62
2022/03/07 01:53:02;;;;;;;7.78;3.67;;;0.70;99.90;;;;;;5092409;28;20532;-61
2022/03/07 01:55:28;;;;;;;7.00;3.35;;;0.70;99.90;;;;;;5092202;28;20051;-61
2022/03/07 01:57:54;;;;;;;8.52;3.15;;;0.60;99.90;;;;;;5092493;28;20429;-62
2022/03/07 02:00:22;;;;;;;6.68;3.60;;;0.60;99.90;;;;;;5092142;28;20042;-61
2022/03/07 02:02:49;;;;;;;6.18;3.53;;;0.50;99.90;;;;;;5092319;28;20040;-61
2022/03/07 02:05:15;;;;;;;7.43;2.85;;;0.50;99.90;;;;;;5092656;28;20072;-62
2022/03/07 02:07:41;;;;;;;6.53;4.07;;;0.50;99.90;;;;;;5092506;28;20231;-62
2022/03/07 02:10:09;;;;;;;7.68;4.35;;;0.60;99.90;;;;;;5091202;28;20040;-62
2022/03/07 02:12:35;;;;;;;6.65;3.70;;;0.70;99.90;;;;;;5091242;28;20130;-62
2022/03/07 02:15:02;;;;;;;11.38;4.85;;;0.60;99.90;;;;;;5092109;28;20851;-61
2022/03/07 02:17:29;;;;;;;13.68;5.45;;;0.50;99.90;;;;;;5092599;28;20047;-61
2022/03/07 02:19:54;;;;;;;13.00;5.72;;;0.40;99.90;;;;;;5095769;28;20178;-62
2022/03/07 02:22:21;;;;;;;8.93;5.35;;;0.60;99.90;;;;;;5096280;28;20119;-62
2022/03/07 02:24:47;;;;;;;12.68;5.07;;;0.60;99.90;;;;;;5095989;28;20055;-62
2022/03/07 02:27:16;;;;;;;16.60;6.20;;;0.50;99.90;;;;;;5096144;28;20086;-62
2022/03/07 02:29:42;;;;;;;16.13;5.75;;;0.50;99.90;;;;;;5096062;28;20123;-62
2022/03/07 02:32:08;;;;;;;8.18;4.15;;;0.40;99.90;;;;;;5095896;28;20123;-62
2022/03/07 02:34:34;;;;;;;10.27;4.85;;;0.30;99.90;;;;;;5095947;28;20068;-61
2022/03/07 02:37:00;;;;;;;11.98;4.63;;;0.40;99.90;;;;;;5096153;28;20260;-62
2022/03/07 02:39:25;;;;;;;10.65;4.20;;;0.30;99.90;;;;;;5095945;28;20089;-62
2022/03/07 02:41:51;;;;;;;11.75;4.50;;;0.30;99.90;;;;;;5095796;28;20036;-61
2022/03/07 02:44:17;;;;;;;9.60;4.53;;;0.40;99.90;;;;;;5111199;28;20039;-61
2022/03/07 02:46:43;;;;;;;10.77;5.00;;;0.40;99.90;;;;;;5094486;28;20098;-61
2022/03/07 02:49:08;;;;;;;15.52;5.03;;;0.20;99.90;;;;;;5095447;28;20474;-62
2022/03/07 02:51:34;;;;;;;12.57;4.72;;;0.20;99.90;;;;;;5095444;28;20035;-62
2022/03/07 02:54:00;;;;;;;10.32;5.13;;;0.20;99.90;;;;;;5095427;28;20048;-62
2022/03/07 02:56:26;;;;;;;8.88;4.32;;;0.10;99.90;;;;;;5095225;28;20051;-62
2022/03/07 02:58:52;;;;;;;9.55;4.25;;;0.10;99.90;;;;;;5095431;28;20044;-62
2022/03/07 03:01:18;;;;;;;9.07;4.13;;;0.00;99.90;;;;;;5095570;28;20047;-61
2022/03/07 03:03:44;;;;;;;7.40;3.80;;;-0.10;99.90;;;;;;5095587;28;20048;-62
2022/03/07 03:06:10;;;;;;;7.80;3.78;;;-0.10;99.90;;;;;;5095450;28;20097;-62
2022/03/07 03:08:36;;;;;;;9.32;4.22;;;0.00;99.90;;;;;;5095587;28;20067;-62
2022/03/07 03:11:02;;;;;;;10.20;4.72;;;0.00;99.90;;;;;;5095517;28;20067;-62
2022/03/07 03:13:27;;;;;;;11.95;4.78;;;0.00;99.90;;;;;;5095127;28;20036;-62
2022/03/07 03:15:54;;;;;;;9.90;3.90;;;0.00;99.90;;;;;;5095062;28;20074;-62
2022/03/07 03:18:21;;;;;;;7.28;3.67;;;-0.10;99.90;;;;;;5093647;28;20535;-62
2022/03/07 03:20:50;;;;;;;6.80;3.47;;;-0.10;99.90;;;;;;5095215;28;20122;-62
2022/03/07 03:23:17;;;;;;;8.57;4.05;;;-0.10;99.90;;;;;;5094999;28;20044;-62
2022/03/07 03:25:43;;;;;;;6.60;3.33;;;-0.10;99.90;;;;;;5095224;28;20044;-62
2022/03/07 03:28:08;;;;;;;12.15;4.68;;;-0.20;99.90;;;;;;5094948;28;20047;-62
2022/03/07 03:30:34;;;;;;;11.43;4.45;;;-0.20;99.90;;;;;;5095046;28;20479;-62
2022/03/07 03:33:00;;;;;;;9.10;4.32;;;-0.20;99.90;;;;;;5095072;28;20075;-62
2022/03/07 03:35:26;;;;;;;9.65;4.30;;;-0.20;99.90;;;;;;5110721;28;20085;-62
2022/03/07 03:37:52;;;;;;;14.32;6.05;;;-0.20;99.90;;;;;;5094649;28;20109;-61
2022/03/07 03:40:18;;;;;;;10.75;5.00;;;-0.10;99.90;;;;;;5094386;28;20036;-62
2022/03/07 03:42:44;;;;;;;7.47;4.20;;;-0.20;99.90;;;;;;5094323;28;20032;-62
2022/03/07 03:45:11;;;;;;;10.02;4.15;;;-0.20;99.90;;;;;;5095718;28;20050;-62
2022/03/07 03:47:42;;;;;;;13.13;4.93;;;-0.40;99.90;;;;;;5094648;28;20040;-61
2022/03/07 03:50:10;;;;;;;10.32;4.13;;;-0.50;99.90;;;;;;5094564;28;20500;-61
2022/03/07 03:52:37;;;;;;;11.13;4.72;;;-0.50;99.90;;;;;;5094737;28;20462;-61
2022/03/07 03:55:04;;;;;;;11.35;4.30;;;-0.40;99.90;;;;;;5094673;28;20082;-61
2022/03/07 03:57:30;;;;;;;7.50;3.92;;;-0.40;99.90;;;;;;5094403;28;20093;-61
2022/03/07 03:59:56;;;;;;;7.05;3.72;;;-0.40;99.90;;;;;;5094397;28;20036;-61
2022/03/07 04:02:22;;;;;;;11.85;4.38;;;-0.30;99.90;;;;;;5094184;28;20042;-61
2022/03/07 04:04:48;;;;;;;6.93;3.95;;;-0.20;99.90;;;;;;5094421;28;20035;-62
2022/03/07 04:07:14;;;;;;;7.00;3.53;;;-0.20;99.90;;;;;;5092797;28;20417;-61
2022/03/07 04:09:41;;;;;;;4.90;2.78;;;-0.20;99.90;;;;;;5093899;28;20126;-61
2022/03/07 04:12:07;;;;;;;7.22;3.53;;;-0.20;99.90;;;;;;5094189;28;20570;-61
2022/03/07 04:14:33;;;;;;;8.23;3.25;;;-0.20;99.90;;;;;;5094259;28;20040;-61
2022/03/07 04:16:59;;;;;;;6.90;2.97;;;-0.30;99.90;;;;;;5094146;28;20132;-61
2022/03/07 04:19:25;;;;;;;6.90;3.10;;;-0.30;99.90;;;;;;5094380;28;20486;-61
2022/03/07 04:21:52;;;;;;;6.05;2.80;;;-0.30;99.90;;;;;;5094055;28;20036;-61
2022/03/07 04:24:17;;;;;;;7.50;3.13;;;-0.20;99.90;;;;;;5093534;28;20056;-61
2022/03/07 04:26:44;;;;;;;8.57;3.70;;;-0.20;99.90;;;;;;5093838;28;20512;-61
2022/03/07 04:29:10;;;;;;;5.97;3.13;;;-0.30;99.90;;;;;;5093777;28;20391;-61
2022/03/07 04:31:41;;;;;;;6.78;3.17;;;-0.30;99.90;;;;;;5093573;28;20039;-62
2022/03/07 04:34:08;;;;;;;6.53;2.92;;;-0.30;99.90;;;;;;5093557;28;20036;-61
2022/03/07 04:36:36;;;;;;;8.13;2.15;;;-0.70;99.90;;;;;;5091781;28;20044;-61
2022/03/07 04:39:04;;;;;;;5.60;2.20;;;-0.70;99.90;;;;;;5093365;28;20028;-61
2022/03/07 04:41:30;;;;;;;5.07;2.80;;;-0.60;99.90;;;;;;5092854;28;20044;-62
2022/03/07 04:43:56;;;;;;;7.57;2.80;;;-0.70;99.90;;;;;;5093085;28;20080;-61
2022/03/07 04:46:22;;;;;;;7.15;2.78;;;-0.60;99.90;;;;;;5093358;28;20067;-61
2022/03/07 04:48:47;;;;;;;4.22;2.50;;;-0.60;99.90;;;;;;5093333;28;20115;-61
2022/03/07 04:51:13;;;;;;;4.95;2.90;;;-0.50;99.90;;;;;;5093427;28;20040;-61
2022/03/07 04:53:39;;;;;;;3.90;2.35;;;-0.50;99.90;;;;;;5093723;28;20107;-61
2022/03/07 04:56:06;;;;;;;4.85;2.30;;;-0.60;99.90;;;;;;5093408;28;20043;-61
2022/03/07 04:58:31;;;;;;;6.00;2.63;;;-0.50;99.90;;;;;;5093343;28;20072;-61
2022/03/07 05:00:57;;;;;;;4.78;3.08;;;-0.60;99.90;;;;;;5092090;28;20068;-61
2022/03/07 05:03:23;;;;;;;4.70;2.67;;;-0.50;99.90;;;;;;5093351;28;20799;-61
2022/03/07 05:05:49;;;;;;;5.47;2.88;;;-0.60;99.90;;;;;;5093189;28;20119;-62
2022/03/07 05:08:15;;;;;;;5.45;2.25;;;-0.70;99.90;;;;;;5092925;28;20089;-62
2022/03/07 05:10:42;;;;;;;5.10;2.20;;;-0.60;99.90;;;;;;5091755;28;20489;-62
2022/03/07 05:13:07;;;;;;;3.72;2.17;;;-0.50;99.90;;;;;;5093067;28;20044;-61
2022/03/07 05:15:33;;;;;;;4.75;2.20;;;-0.50;99.90;;;;;;5093101;28;20109;-61
2022/03/07 05:17:59;;;;;;;5.93;2.33;;;-0.50;99.90;;;;;;5091099;28;20047;-62
2022/03/07 05:20:25;;;;;;;3.90;2.22;;;-0.60;99.90;;;;;;5072618;28;20044;-61
2022/03/07 05:22:52;;;;;;;3.65;2.67;;;-0.60;99.90;;;;;;5072454;28;20094;-61
2022/03/07 05:25:19;;;;;;;4.35;2.10;;;-0.60;99.90;;;;;;5072381;28;20429;-62
2022/03/07 05:27:46;;;;;;;3.80;2.28;;;-0.70;99.90;;;;;;5072485;28;20089;-61
2022/03/07 05:30:15;;;;;;;4.22;2.20;;;-0.60;99.90;;;;;;5072518;28;20049;-62
2022/03/07 05:32:50;;;;;;;4.93;2.20;;;-0.70;99.90;;;;;;5072600;28;20406;-61
2022/03/07 05:35:16;;;;;;;3.40;2.45;;;-0.80;99.90;;;;;;5072370;28;20040;-61
2022/03/07 05:37:42;;;;;;;6.18;2.45;;;-0.90;99.90;;;;;;5073070;28;20093;-61
2022/03/07 05:40:10;;;;;;;4.88;2.78;;;-0.90;99.90;;;;;;5072669;28;20040;-61
2022/03/07 05:42:37;;;;;;;2.90;2.08;;;-0.80;99.90;;;;;;5072413;28;20053;-61
2022/03/07 05:45:05;;;;;;;4.90;2.60;;;-0.80;99.90;;;;;;5072546;28;20478;-61
2022/03/07 05:47:31;;;;;;;3.72;2.03;;;-1.00;99.90;;;;;;5072110;28;20040;-61
2022/03/07 05:49:57;;;;;;;3.50;2.25;;;-1.10;99.90;;;;;;5072198;28;20111;-61
2022/03/07 05:52:23;;;;;;;4.10;2.50;;;-1.20;99.90;;;;;;5072003;28;20791;-62
2022/03/07 05:54:49;;;;;;;2.63;2.20;;;-1.20;99.90;;;;;;5072175;28;20036;-62
2022/03/07 05:57:15;;;;;;;5.13;2.55;;;-1.10;99.90;;;;;;5072199;28;20120;-61
2022/03/07 05:59:41;;;;;;;4.05;2.17;;;-1.00;99.90;;;;;;5070842;28;20135;-62
2022/03/07 06:02:07;;;;;;;4.95;2.40;;;-0.90;99.90;;;;;;5071943;28;20479;-62
2022/03/07 06:04:33;;;;;;;3.10;2.40;;;-0.80;99.90;;;;;;5072128;28;20083;-61
2022/03/07 06:06:58;;;;;;;3.65;2.60;;;-0.90;99.90;;;;;;5072110;28;20108;-62
2022/03/07 06:09:24;;;;;;;4.55;2.53;;;-0.80;99.90;;;;;;5072312;28;20035;-61
2022/03/07 06:11:53;;;;;;;4.30;2.53;;;-0.80;99.90;;;;;;5072006;28;20402;-61
2022/03/07 06:14:19;;;;;;;5.28;2.72;;;-0.70;99.90;;;;;;5071972;28;20550;-62
2022/03/07 06:16:44;;;;;;;4.53;2.88;;;-0.60;99.90;;;;;;5072014;28;20132;-62
2022/03/07 06:19:10;;;;;;;6.40;2.90;;;-0.60;99.90;;;;;;5072058;28;20044;-61
2022/03/07 06:21:36;;;;;;;11.15;3.03;;;-0.50;99.90;;;;;;5072189;28;20079;-62
2022/03/07 06:24:02;;;;;;;8.57;2.70;;;-0.50;99.90;;;;;;5087481;28;20049;-62
2022/03/07 06:26:27;;;;;;;4.10;2.80;;;-0.50;99.90;;;;;;5072105;28;20048;-62
2022/03/07 06:28:53;;;;;;;10.35;3.88;;;-0.50;99.90;;;;;;5071698;28;20470;-62
2022/03/07 06:31:19;;;;;;;6.70;2.95;;;-0.50;99.90;;;;;;5083353;28;20077;-62
2022/03/07 06:33:44;;;;;;;5.57;3.00;;;-0.50;99.90;;;;;;5084247;28;20032;-61
2022/03/07 06:36:10;;;;;;;4.95;3.00;;;-0.50;99.90;;;;;;5091441;28;20066;-61
2022/03/07 06:38:37;;;;;;;7.18;4.13;;;-0.50;99.90;;;;;;5091613;28;20051;-62
2022/03/07 06:41:04;;;;;;;6.38;4.13;;;-0.60;99.90;;;;;;5086323;28;20043;-61
2022/03/07 06:43:29;;;;;;;9.07;4.80;;;-0.50;99.90;;;;;;5088707;28;20044;-62
2022/03/07 06:45:55;;;;;;;10.52;5.60;;;-0.50;99.90;;;;;;5091640;28;20088;-61
2022/03/07 06:48:21;;;;;;;11.40;6.13;;;-0.40;99.90;;;;;;5091428;28;20036;-62
2022/03/07 06:50:47;;;;;;;11.23;5.60;;;-0.40;99.90;;;;;;5091834;28;20106;-61
2022/03/07 06:53:13;;;;;;;10.82;5.10;;;-0.30;99.90;;;;;;5091541;28;20051;-61
2022/03/07 06:55:38;;;;;;;8.13;5.03;;;-0.20;99.90;;;;;;5091627;28;20131;-61
2022/03/07 06:58:04;;;;;;;9.55;4.65;;;-0.20;99.90;;;;;;5091760;28;20040;-61
2022/03/07 07:00:30;;;;;;;8.32;4.38;;;0.00;99.90;;;;;;5091307;28;20093;-61
2022/03/07 07:02:56;;;;;;;9.15;4.30;;;0.10;99.90;;;;;;5091517;28;20036;-61
2022/03/07 07:05:22;;;;;;;9.32;4.63;;;0.20;99.90;;;;;;5090923;28;20470;-61
2022/03/07 07:07:48;;;;;;;9.82;5.00;;;0.20;99.90;;;;;;5090180;28;20047;-61
2022/03/07 07:10:20;;;;;;;6.80;4.15;;;0.40;99.90;;;;;;5094963;28;20071;-61
2022/03/07 07:12:47;;;;;;;7.28;4.38;;;0.30;99.90;;;;;;5095171;28;20127;-61
2022/03/07 07:15:13;;;;;;;6.25;4.30;;;0.40;99.90;;;;;;5094806;28;20043;-61
2022/03/07 07:17:41;;;;;;;8.65;4.38;;;0.60;99.90;;;;;;5095252;28;20032;-61
2022/03/07 07:20:08;;;;;;;7.38;4.45;;;0.60;99.90;;;;;;5095105;28;20457;-61
2022/03/07 07:22:34;;;;;;;8.63;4.50;;;0.80;99.90;;;;;;5094943;28;20032;-62
2022/03/07 07:25:01;;;;;;;9.23;4.18;;;0.90;99.90;;;;;;5094631;28;20059;-61
2022/03/07 07:27:28;;;;;;;8.88;4.75;;;1.20;99.90;;;;;;5093724;28;20032;-60
2022/03/07 07:29:54;;;;;;;11.95;4.57;;;1.30;99.90;;;;;;5094693;28;20102;-60
2022/03/07 07:32:20;;;;;;;10.30;4.40;;;1.50;99.90;;;;;;5094574;28;20044;-60
2022/03/07 07:34:45;;;;;;;6.45;3.95;;;1.80;99.90;;;;;;5094502;28;20390;-60
2022/03/07 07:37:11;;;;;;;6.00;3.88;;;2.20;99.90;;;;;;5110050;28;20082;-60
2022/03/07 07:39:37;;;;;;;6.75;3.85;;;2.60;99.90;;;;;;5093013;28;20458;-61
2022/03/07 07:42:04;;;;;;;5.32;4.05;;;2.90;99.90;;;;;;5094117;28;20064;-61
2022/03/07 07:44:29;;;;;;;9.70;3.78;;;3.40;99.90;;;;;;5092861;28;20485;-61
2022/03/07 07:46:55;;;;;;;7.88;3.85;;;3.70;99.90;;;;;;5094298;28;20035;-61
2022/03/07 07:49:24;;;;;;;4.28;3.17;;;4.00;99.90;;;;;;5094383;28;20070;-61
2022/03/07 07:51:53;;;;;;;6.13;3.60;;;4.20;99.90;;;;;;5094326;28;20398;-61
2022/03/07 07:54:19;;;;;;;5.70;3.20;;;4.60;99.90;;;;;;5094220;28;20173;-61
2022/03/07 07:56:44;;;;;;;6.13;3.13;;;5.10;99.90;;;;;;5094230;28;20119;-61
2022/03/07 07:59:11;;;;;;;7.20;3.20;;;5.40;99.90;;;;;;5093883;28;20202;-61
2022/03/07 08:01:36;;;;;;;5.72;3.58;;;5.80;99.90;;;;;;5093885;28;20047;-61
2022/03/07 08:04:02;;;;;;;8.50;3.47;;;6.00;99.90;;;;;;5093879;28;20040;-61
2022/03/07 08:06:28;;;;;;;7.28;3.33;;;6.20;99.90;;;;;;5093878;28;20463;-60
2022/03/07 08:08:53;;;;;;;6.93;3.38;;;6.50;99.90;;;;;;5109388;28;20047;-61
2022/03/07 08:11:19;;;;;;;4.85;3.10;;;6.70;99.90;;;;;;5094507;28;20028;-62
2022/03/07 08:13:45;;;;;;;6.47;3.40;;;6.90;99.90;;;;;;5093584;28;20532;-62
2022/03/07 08:16:10;;;;;;;6.95;3.63;;;7.20;99.90;;;;;;5092749;28;20122;-62
2022/03/07 08:18:36;;;;;;;6.00;3.10;;;7.60;99.90;;;;;;5093747;28;20398;-62
2022/03/07 08:21:02;;;;;;;7.95;3.65;;;7.90;99.90;;;;;;5093538;28;20085;-62
2022/03/07 08:23:28;;;;;;;5.43;3.13;;;8.20;99.90;;;;;;5093235;28;20119;-62
2022/03/07 08:25:56;;;;;;;8.48;2.85;;;8.40;99.90;;;;;;5093394;28;20044;-62
2022/03/07 08:28:23;;;;;;;5.97;2.83;;;8.60;99.90;;;;;;5093492;28;20036;-60
2022/03/07 08:30:49;;;;;;;7.30;3.08;;;8.90;99.90;;;;;;5093607;28;20032;-62
2022/03/07 08:33:15;;;;;;;5.05;2.80;;;9.10;99.90;;;;;;5093321;28;20062;-59
2022/03/07 08:35:40;;;;;;;5.97;3.17;;;9.40;99.90;;;;;;5093258;28;20036;-59
2022/03/07 08:38:06;;;;;;;4.97;2.17;;;9.40;99.90;;;;;;5093186;28;20089;-62
2022/03/07 08:40:32;;;;;;;7.00;2.75;;;9.80;99.90;;;;;;5093137;28;20478;-60
2022/03/07 08:42:57;;;;;;;6.35;3.00;;;10.00;99.90;;;;;;5093256;28;20474;-60
2022/03/07 08:45:28;;;;;;;8.57;3.47;;;10.00;99.90;;;;;;5093166;28;20068;-60
2022/03/07 08:47:55;;;;;;;5.78;2.28;;;10.20;99.90;;;;;;5093158;28;20392;-60
2022/03/07 08:50:21;;;;;;;4.38;1.90;;;10.40;99.90;;;;;;5093134;28;20115;-60
2022/03/07 08:52:47;;;;;;;5.63;2.25;;;10.30;99.90;;;;;;5093050;28;20124;-60
2022/03/07 08:55:14;;;;;;;7.72;2.17;;;10.50;99.90;;;;;;5092812;28;20101;-60
2022/03/07 08:57:40;;;;;;;4.95;2.33;;;10.70;99.90;;;;;;5092982;28;20082;-60
2022/03/07 09:00:09;;;;;;;6.78;2.05;;;10.90;99.90;;;;;;5093028;28;20039;-60
2022/03/07 09:02:34;;;;;;;12.10;3.22;;;11.10;99.90;;;;;;5091567;28;20036;-61
2022/03/07 09:05:00;;;;;;;5.85;2.45;;;11.20;99.90;;;;;;5092724;28;20513;-60
2022/03/07 09:07:28;;;;;;;10.25;3.08;;;11.30;99.90;;;;;;5092633;28;20043;-61
2022/03/07 09:09:57;;;;;;;7.87;2.77;;;11.40;99.90;;;;;;5092633;28;20043;-60
2022/03/07 09:12:27;;;;;;;6.53;2.08;;;11.50;99.90;;;;;;5092824;28;20092;-60
2022/03/07 09:14:58;;;;;;;4.97;2.22;;;11.70;99.90;;;;;;5092621;28;20075;-61
2022/03/07 09:17:25;;;;;;;8.05;2.55;;;11.40;99.90;;;;;;5092955;28;20082;-60
2022/03/07 09:19:51;;;;;;;7.88;2.47;;;11.50;99.90;;;;;;5091055;28;20079;-60
2022/03/07 09:22:16;;;;;;;4.60;1.98;;;11.70;99.90;;;;;;5092325;28;20047;-60
2022/03/07 09:24:42;;;;;;;8.65;2.58;;;11.60;99.90;;;;;;5092106;28;20056;-62
2022/03/07 09:27:08;;;;;;;6.55;1.92;;;11.60;99.90;;;;;;5092186;28;20097;-59
2022/03/07 09:29:34;;;;;;;3.28;1.63;;;11.50;99.90;;;;;;5092455;28;20444;-60
2022/03/07 09:32:00;;;;;;;6.03;1.90;;;11.40;99.90;;;;;;5092274;28;20039;-61
2022/03/07 09:34:25;;;;;;;4.55;1.63;;;11.30;99.90;;;;;;5092161;28;20477;-61
2022/03/07 09:36:51;;;;;;;6.22;1.50;;;11.40;99.90;;;;;;5092094;28;20075;-61
2022/03/07 09:39:17;;;;;;;4.97;2.17;;;11.60;99.90;;;;;;5092241;28;20059;-61
2022/03/07 09:41:42;;;;;;;3.90;1.63;;;11.40;99.90;;;;;;5092251;28;20493;-62
2022/03/07 09:44:08;;;;;;;6.38;2.05;;;11.50;99.90;;;;;;5092064;28;20040;-62
2022/03/07 09:46:35;;;;;;;4.05;1.80;;;11.60;99.90;;;;;;5091946;28;20032;-61
2022/03/07 09:49:01;;;;;;;4.07;1.65;;;11.60;99.90;;;;;;5090201;28;20048;-61
2022/03/07 09:51:29;;;;;;;6.30;1.50;;;11.60;99.90;;;;;;5092160;28;20478;-63
2022/03/07 09:53:55;;;;;;;7.45;1.83;;;11.60;99.90;;;;;;5092238;28;20036;-61
2022/03/07 09:56:21;;;;;;;5.25;2.35;;;11.50;99.90;;;;;;5092157;28;20181;-61
2022/03/07 09:58:47;;;;;;;7.70;2.28;;;11.70;99.90;;;;;;5092150;28;20046;-61
2022/03/07 10:01:18;;;;;;;7.28;1.90;;;11.40;99.90;;;;;;5091965;28;20040;-61
2022/03/07 10:03:45;;;;;;;5.22;2.30;;;11.30;99.90;;;;;;5091771;28;20113;-61
2022/03/07 10:06:15;;;;;;;5.63;2.05;;;11.30;99.90;;;;;;5091755;28;20039;-61
2022/03/07 10:08:53;;;;;;;7.75;2.47;;;11.20;99.90;;;;;;5089375;28;20032;-61
2022/03/07 10:11:18;;;;;;;4.43;1.83;;;10.80;99.90;;;;;;5091569;28;20032;-61
2022/03/07 10:13:59;;;;;;;6.25;2.22;;;10.60;99.90;;;;;;5091926;28;20494;-62
2022/03/07 10:16:35;;;;;;;7.82;1.85;;;10.80;99.90;;;;;;5091812;28;20512;-63
2022/03/07 10:19:07;;;;;;;8.23;1.95;;;10.60;99.90;;;;;;5092012;28;20120;-62
2022/03/07 10:21:32;;;;;;;3.72;1.50;;;10.90;99.90;;;;;;5092046;28;20198;-60
2022/03/07 10:23:58;;;;;;;6.15;1.63;;;11.00;99.90;;;;;;5091830;28;20166;-60
2022/03/07 10:26:25;;;;;;;4.80;1.77;;;11.20;99.90;;;;;;5091704;28;20502;-61
2022/03/07 10:28:55;;;;;;;5.35;1.67;;;11.40;99.90;;;;;;5091801;28;20087;-61
2022/03/07 10:31:22;;;;;;;5.18;1.40;;;11.60;99.90;;;;;;5092068;28;20044;-60
2022/03/07 10:34:09;;;;;;;5.95;1.83;;;11.90;99.90;;;;;;5085212;28;20028;-61
2022/03/07 10:36:43;;;;;;;3.05;1.55;;;11.80;99.90;;;;;;5074220;28;20518;-59
2022/03/07 10:39:11;;;;;;;5.13;1.65;;;12.10;99.90;;;;;;5072023;28;20036;-59
2022/03/07 10:41:45;;;;;;;4.78;1.40;;;11.90;99.90;;;;;;5082498;28;20089;-59
2022/03/07 10:44:26;;;;;;;5.55;1.67;;;11.50;99.90;;;;;;5079320;28;20166;-60
2022/03/07 10:46:51;;;;;;;3.92;1.60;;;11.20;99.90;;;;;;5075604;28;20032;-59
2022/03/07 10:49:17;;;;;;;4.32;2.00;;;11.10;99.90;;;;;;5075314;28;20082;-59
2022/03/07 10:51:55;;;;;;;32.67;3.15;;;11.20;99.90;;;;;;5075048;28;20171;-59
2022/03/07 10:54:22;;;;;;;3.85;2.10;;;11.50;99.90;;;;;;5073841;28;20126;-59
2022/03/07 10:56:53;;;;;;;3.05;1.60;;;11.80;99.90;;;;;;5075278;28;20044;-60
2022/03/07 10:59:32;;;;;;;5.97;1.98;;;11.60;99.90;;;;;;5075942;28;20044;-59
2022/03/07 11:02:08;;;;;;;3.72;1.52;;;11.10;99.90;;;;;;5090266;28;20048;-59
2022/03/07 11:04:34;;;;;;;4.28;1.95;;;10.80;99.90;;;;;;5095192;28;20082;-59
2022/03/07 11:07:00;;;;;;;7.55;1.70;;;10.50;99.90;;;;;;5095202;28;20028;-59
2022/03/07 11:09:27;;;;;;;3.38;1.70;;;10.40;99.90;;;;;;5095195;28;20105;-60
2022/03/07 11:11:53;;;;;;;3.70;1.48;;;10.60;99.90;;;;;;5095023;28;20465;-59
2022/03/07 11:14:21;;;;;;;3.75;1.67;;;10.80;99.90;;;;;;5095080;28;20161;-59
2022/03/07 11:16:49;;;;;;;3.10;1.50;;;10.90;99.90;;;;;;5094659;28;20517;-60
2022/03/07 11:19:18;;;;;;;5.18;1.70;;;11.00;99.90;;;;;;5075190;28;20048;-59
2022/03/07 11:21:45;;;;;;;3.45;1.92;;;11.20;99.90;;;;;;5074890;28;20051;-59
2022/03/07 11:24:12;;;;;;;4.85;1.55;;;11.50;99.90;;;;;;5092136;28;20111;-59
2022/03/07 11:26:41;;;;;;;6.25;2.42;;;11.30;99.90;;;;;;5095079;28;20044;-60
2022/03/07 11:29:08;;;;;;;3.35;1.50;;;11.30;99.90;;;;;;5081415;28;20041;-59
2022/03/07 11:31:35;;;;;;;4.35;1.50;;;11.20;99.90;;;;;;5081448;28;20437;-61
2022/03/07 11:34:08;;;;;;;5.15;2.13;;;11.40;99.90;;;;;;5091070;28;20043;-61
2022/03/07 11:36:37;;;;;;;5.57;1.80;;;11.50;99.90;;;;;;5095389;28;20040;-59
2022/03/07 11:39:05;;;;;;;1.60;1.20;;;11.60;99.90;;;;;;5094924;28;20040;-60
2022/03/07 11:41:33;;;;;;;1.67;0.93;;;11.90;99.90;;;;;;5094123;28;20047;-60
2022/03/07 11:44:01;;;;;;;2.42;0.90;;;11.80;99.00;;;;;;5095095;28;20123;-59
2022/03/07 11:46:34;;;;;;;5.32;1.00;;;11.60;96.10;;;;;;5076849;28;20459;-59
2022/03/07 11:49:01;;;;;;;1.75;1.00;;;11.90;97.40;;;;;;5077824;28;20119;-59
2022/03/07 11:51:30;;;;;;;2.65;1.00;;;12.10;97.50;;;;;;5072571;28;20474;-59
2022/03/07 11:53:57;;;;;;;1.85;0.70;;;12.10;96.50;;;;;;5085988;28;20712;-59
2022/03/07 11:56:27;;;;;;;5.88;1.10;;;12.00;96.60;;;;;;5074143;28;20047;-59
2022/03/07 11:58:54;;;;;;;2.78;1.40;;;12.50;97.60;;;;;;5078059;28;20044;-59
2022/03/07 12:01:22;;;;;;;3.92;1.20;;;12.80;98.10;;;;;;5074047;28;20036;-59
2022/03/07 12:03:48;;;;;;;2.25;1.10;;;13.20;97.70;;;;;;5073644;28;20048;-59
2022/03/07 12:06:17;;;;;;;3.28;0.98;;;13.40;97.90;;;;;;5073617;28;20033;-59
2022/03/07 12:08:44;;;;;;;5.47;1.25;;;13.20;96.60;;;;;;5073404;28;20445;-58
2022/03/07 12:11:22;;;;;;;5.63;1.00;;;13.60;97.20;;;;;;5073301;28;20462;-59
2022/03/07 12:13:49;;;;;;;5.57;1.50;;;13.90;94.90;;;;;;5075964;28;20052;-59
2022/03/07 12:16:26;;;;;;;2.58;1.20;;;13.70;93.00;;;;;;5079239;28;20135;-59
2022/03/07 12:19:10;;;;;;;1.85;1.27;;;13.50;93.50;;;;;;5073600;28;20044;-59
2022/03/07 12:21:41;;;;;;;2.80;1.35;;;13.80;94.30;;;;;;5076025;28;20113;-59
2022/03/07 12:24:08;;;;;;;4.50;1.20;;;13.90;95.50;;;;;;5073119;28;20082;-59
2022/03/07 12:26:56;;;;;;;2.60;1.20;;;13.80;94.50;;;;;;5073285;28;20044;-59
2022/03/07 12:29:24;;;;;;;2.22;1.40;;;14.10;94.10;;;;;;5075152;28;20122;-59
2022/03/07 12:32:03;;;;;;;1.45;0.98;;;14.10;94.30;;;;;;5093126;28;20584;-60
2022/03/07 12:34:31;;;;;;;5.85;1.20;;;13.80;93.40;;;;;;5093519;28;20044;-59
2022/03/07 12:37:15;;;;;;;1.75;0.95;;;13.80;93.50;;;;;;5093423;28;20497;-59
2022/03/07 12:39:55;;;;;;;4.93;1.20;;;14.00;94.60;;;;;;5093324;28;20111;-59
2022/03/07 12:42:33;;;;;;;2.85;1.10;;;13.50;93.80;;;;;;5087232;28;20101;-59
2022/03/07 12:45:00;;;;;;;1.23;0.80;;;13.30;94.70;;;;;;5072620;28;20592;-59
2022/03/07 12:47:37;;;;;;;1.80;0.90;;;13.30;94.40;;;;;;5072853;28;20048;-59